createdAt,value
2022-12-31T00:01:23.755Z,100068.94
2022-12-31T00:03:50.622Z,100061.19
2022-12-31T00:06:22.959Z,100068.06
2022-12-31T00:08:50.218Z,100077.53
2022-12-31T00:11:17.117Z,100061.19
2022-12-31T00:13:43.986Z,100079.28
2022-12-31T00:16:22.375Z,100064.63
2022-12-31T00:18:52.343Z,100079.28
2022-12-31T00:21:19.652Z,100087.88
2022-12-31T00:23:46.384Z,100082.75
2022-12-31T00:26:21.260Z,100081.03
2022-12-31T00:28:48.678Z,100094.78
2022-12-31T00:31:20.698Z,100087.91
2022-12-31T00:33:47.753Z,100093.06
2022-12-31T00:36:18.715Z,100099.97
2022-12-31T00:38:48.583Z,100098.22
2022-12-31T00:41:16.276Z,100091.38
2022-12-31T00:43:43.517Z,100104.28
2022-12-31T00:46:11.206Z,100099.13
2022-12-31T00:48:38.239Z,100106.00
2022-12-31T00:51:07.177Z,100078.47
2022-12-31T00:53:34.352Z,100099.97
2022-12-31T00:56:10.058Z,100098.28
2022-12-31T00:58:36.820Z,100110.31
2022-12-31T01:01:17.177Z,100108.59
2022-12-31T01:03:44.437Z,100106.00
2022-12-31T01:06:11.750Z,100103.44
2022-12-31T01:08:38.665Z,100114.63
2022-12-31T01:11:24.097Z,100112.91
2022-12-31T01:13:56.360Z,100110.31
2022-12-31T01:16:33.718Z,100117.22
2022-12-31T01:19:01.908Z,100112.06
2022-12-31T01:21:29.758Z,100103.44
2022-12-31T01:23:56.589Z,100084.50
2022-12-31T01:26:23.322Z,100118.06
2022-12-31T01:28:50.021Z,100112.03
2022-12-31T01:31:19.582Z,100113.72
2022-12-31T01:33:46.711Z,100091.34
2022-12-31T01:36:25.376Z,100112.00
2022-12-31T01:38:53.294Z,100115.44
2022-12-31T01:41:22.868Z,100124.94
2022-12-31T01:43:56.846Z,100124.91
2022-12-31T01:46:48.622Z,100112.00
2022-12-31T01:49:23.126Z,100112.00
2022-12-31T01:51:58.890Z,100104.28
2022-12-31T01:54:27.020Z,100108.59
2022-12-31T01:56:54.524Z,100124.06
2022-12-31T01:59:22.031Z,100099.13
2022-12-31T02:01:52.793Z,100109.44
2022-12-31T02:04:21.835Z,100101.69
2022-12-31T02:07:09.368Z,100106.88
2022-12-31T02:09:40.655Z,100099.13
2022-12-31T02:12:08.129Z,100105.13
2022-12-31T02:14:40.551Z,100094.81
2022-12-31T02:17:26.544Z,100097.38
2022-12-31T02:20:19.628Z,100098.22
2022-12-31T02:23:16.879Z,100106.84
2022-12-31T02:26:08.657Z,100104.25
2022-12-31T02:28:43.751Z,100105.97
2022-12-31T02:31:17.971Z,101461.81
2022-12-31T02:33:52.144Z,101436.09
2022-12-31T02:36:21.497Z,101435.94
2022-12-31T02:38:48.875Z,101436.41
2022-12-31T02:41:37.128Z,101430.16
2022-12-31T02:44:23.745Z,101456.50
2022-12-31T02:47:08.810Z,101471.97
2022-12-31T02:50:00.441Z,101474.13
2022-12-31T02:52:39.195Z,101485.63
2022-12-31T02:55:24.606Z,101482.44
2022-12-31T02:57:51.171Z,101487.38
2022-12-31T03:00:36.887Z,101513.59
2022-12-31T03:03:03.546Z,101530.56
2022-12-31T03:05:32.924Z,101564.34
2022-12-31T03:07:59.668Z,101571.28
2022-12-31T03:10:26.377Z,101601.91
2022-12-31T03:12:53.418Z,101637.72
2022-12-31T03:15:23.089Z,101661.22
2022-12-31T03:18:07.928Z,101687.13
2022-12-31T03:20:59.594Z,101703.75
2022-12-31T03:23:38.506Z,101723.44
2022-12-31T03:26:10.404Z,101725.69
2022-12-31T03:28:38.751Z,101749.22
2022-12-31T03:31:07.782Z,101776.72
2022-12-31T03:33:37.241Z,101806.13
2022-12-31T03:36:12.185Z,101828.69
2022-12-31T03:38:38.909Z,101855.97
2022-12-31T03:41:05.815Z,101862.44
2022-12-31T03:43:32.607Z,101880.22
2022-12-31T03:46:01.594Z,101883.03
2022-12-31T03:48:28.677Z,101904.50
2022-12-31T03:50:55.438Z,101904.66
2022-12-31T03:53:22.016Z,101968.50
2022-12-31T03:55:53.269Z,102021.19
2022-12-31T03:58:20.123Z,102037.50
2022-12-31T04:00:46.803Z,102030.81
2022-12-31T04:03:13.556Z,102063.31
2022-12-31T04:05:40.545Z,102076.97
2022-12-31T04:08:07.367Z,102111.25
2022-12-31T04:10:34.156Z,102117.28
2022-12-31T04:13:02.556Z,102115.66
2022-12-31T04:15:29.217Z,102105.34
2022-12-31T04:17:55.923Z,102113.00
2022-12-31T04:20:22.566Z,102116.00
2022-12-31T04:22:49.273Z,102110.50
2022-12-31T04:25:16.043Z,102126.94
2022-12-31T04:27:45.465Z,102112.94
2022-12-31T04:30:13.470Z,102143.22
2022-12-31T04:32:40.336Z,102141.13
2022-12-31T04:35:07.722Z,102146.22
2022-12-31T04:37:34.389Z,102160.09
2022-12-31T04:40:05.955Z,102165.97
2022-12-31T04:42:34.033Z,102186.56
2022-12-31T04:45:00.707Z,102211.78
2022-12-31T04:47:27.410Z,102259.41
2022-12-31T04:49:54.076Z,102282.09
2022-12-31T04:52:20.773Z,102290.59
2022-12-31T04:54:47.539Z,102311.06
2022-12-31T04:57:14.333Z,102336.56
2022-12-31T04:59:41.002Z,102358.88
2022-12-31T05:02:07.964Z,102374.53
2022-12-31T05:04:34.876Z,102390.00
2022-12-31T05:07:01.513Z,102461.72
2022-12-31T05:09:28.498Z,102549.44
2022-12-31T05:11:55.196Z,102546.25
2022-12-31T05:14:22.040Z,102512.88
2022-12-31T05:16:48.741Z,102504.56
2022-12-31T05:19:15.557Z,102493.16
2022-12-31T05:21:42.252Z,102481.16
2022-12-31T05:24:09.043Z,102473.91
2022-12-31T05:26:35.791Z,102470.38
2022-12-31T05:29:02.399Z,102455.75
2022-12-31T05:31:29.164Z,102437.38
2022-12-31T05:33:55.891Z,102458.66
2022-12-31T05:36:22.536Z,102451.00
2022-12-31T05:38:49.163Z,102440.69
2022-12-31T05:41:15.834Z,102443.41
2022-12-31T05:43:42.469Z,102447.34
2022-12-31T05:46:09.189Z,102438.88
2022-12-31T05:48:35.873Z,102436.38
2022-12-31T05:51:02.600Z,102425.03
2022-12-31T05:53:29.234Z,102434.94
2022-12-31T05:55:55.906Z,102438.47
2022-12-31T05:58:22.569Z,102431.59
2022-12-31T06:00:49.270Z,102446.59
2022-12-31T06:03:16.101Z,102439.47
2022-12-31T06:05:43.571Z,102430.00
2022-12-31T06:08:12.150Z,102448.41
2022-12-31T06:10:39.647Z,102442.25
2022-12-31T06:13:06.460Z,102450.06
2022-12-31T06:15:33.269Z,102457.72
2022-12-31T06:17:59.991Z,102454.34
2022-12-31T06:20:26.684Z,102451.19
2022-12-31T06:22:53.519Z,102458.25
2022-12-31T06:25:20.202Z,102466.59
2022-12-31T06:27:46.906Z,102474.53
2022-12-31T06:30:13.999Z,102480.19
2022-12-31T06:32:40.961Z,102480.69
2022-12-31T06:35:08.178Z,102470.16
2022-12-31T06:37:34.909Z,102457.19
2022-12-31T06:40:01.622Z,102505.41
2022-12-31T06:42:30.906Z,102522.91
2022-12-31T06:44:58.722Z,102551.47
2022-12-31T06:47:25.879Z,102555.88
2022-12-31T06:49:53.256Z,102574.91
2022-12-31T06:52:20.640Z,102595.69
2022-12-31T06:54:47.926Z,102602.63
2022-12-31T06:57:14.956Z,102606.13
2022-12-31T06:59:41.998Z,102627.34
2022-12-31T07:02:32.016Z,102629.41
2022-12-31T07:05:18.239Z,102657.00
2022-12-31T07:08:06.405Z,102672.69
2022-12-31T07:10:53.725Z,102667.34
2022-12-31T07:13:57.965Z,102659.19
2022-12-31T07:16:39.745Z,102674.31
2022-12-31T07:19:16.586Z,102681.31
2022-12-31T07:21:43.700Z,102715.03
2022-12-31T07:24:11.787Z,102730.00
2022-12-31T07:27:00.261Z,102756.50
2022-12-31T07:29:39.072Z,102753.94
2022-12-31T07:32:18.546Z,102751.16
2022-12-31T07:35:00.431Z,102771.75
2022-12-31T07:37:53.537Z,102787.81
2022-12-31T07:40:41.522Z,102794.59
2022-12-31T07:43:36.392Z,102808.47
2022-12-31T07:46:06.184Z,102809.81
2022-12-31T07:48:36.844Z,102828.06
2022-12-31T07:51:03.968Z,102802.75
2022-12-31T07:53:31.046Z,102802.84
2022-12-31T07:56:02.560Z,102830.28
2022-12-31T07:58:45.798Z,102830.88
2022-12-31T08:01:14.855Z,102837.66
2022-12-31T08:03:56.022Z,102860.41
2022-12-31T08:06:51.515Z,102866.94
2022-12-31T08:09:39.930Z,102853.81
2022-12-31T08:12:08.027Z,102837.59
2022-12-31T08:14:40.328Z,102838.13
2022-12-31T08:17:07.230Z,102821.41
2022-12-31T08:19:34.210Z,102829.72
2022-12-31T08:22:19.228Z,102824.03
2022-12-31T08:24:58.402Z,102839.28
2022-12-31T08:27:37.357Z,102826.56
2022-12-31T08:30:42.362Z,102831.25
2022-12-31T08:36:17.869Z,102799.94
2022-12-31T08:38:53.223Z,102777.09
2022-12-31T08:41:30.667Z,102767.44
2022-12-31T08:44:12.811Z,102773.00
2022-12-31T08:46:40.609Z,102759.19
2022-12-31T08:49:09.313Z,102728.22
2022-12-31T08:51:36.336Z,102693.63
2022-12-31T08:54:04.045Z,102676.03
2022-12-31T08:56:34.899Z,102667.22
2022-12-31T08:59:01.622Z,102646.28
2022-12-31T09:01:32.192Z,102632.78
2022-12-31T09:04:06.315Z,102624.25
2022-12-31T09:06:36.742Z,102577.84
2022-12-31T09:09:33.413Z,102557.19
2022-12-31T09:12:00.132Z,102536.75
2022-12-31T09:14:36.294Z,102494.88
2022-12-31T09:17:36.017Z,102462.81
2022-12-31T09:20:03.144Z,102436.03
2022-12-31T09:22:30.191Z,102396.34
2022-12-31T09:24:57.110Z,102386.25
2022-12-31T09:27:42.055Z,102373.16
2022-12-31T09:30:11.046Z,102359.00
2022-12-31T09:33:01.157Z,102335.06
2022-12-31T09:35:38.002Z,102315.47
2022-12-31T09:38:24.852Z,102281.94
2022-12-31T09:41:03.444Z,102272.84
2022-12-31T09:43:39.208Z,102249.59
2022-12-31T09:46:21.172Z,102230.59
2022-12-31T09:49:23.223Z,102200.47
2022-12-31T09:52:09.539Z,102168.72
2022-12-31T09:54:43.743Z,102156.03
2022-12-31T09:57:23.988Z,102092.63
2022-12-31T10:00:05.725Z,102088.91
2022-12-31T10:02:59.915Z,102049.84
2022-12-31T10:05:50.741Z,102015.25
2022-12-31T10:08:17.331Z,101975.44
2022-12-31T10:10:51.045Z,101918.13
2022-12-31T10:13:41.877Z,101898.34
2022-12-31T10:16:27.576Z,101852.31
2022-12-31T10:19:12.986Z,101806.25
2022-12-31T10:22:27.165Z,101757.66
2022-12-31T10:25:18.355Z,101705.63
2022-12-31T10:28:07.089Z,101650.84
2022-12-31T10:30:35.334Z,101605.78
2022-12-31T10:33:34.580Z,101557.06
2022-12-31T10:36:21.410Z,101518.00
2022-12-31T10:39:14.486Z,101467.66
2022-12-31T10:42:21.314Z,101427.72
2022-12-31T10:45:12.566Z,101363.44
2022-12-31T10:47:51.177Z,101313.97
2022-12-31T10:50:29.788Z,101267.09
2022-12-31T10:53:18.291Z,101222.78
2022-12-31T10:56:00.384Z,101189.78
2022-12-31T10:58:49.099Z,101168.09
2022-12-31T11:01:25.001Z,101145.47
2022-12-31T11:04:13.409Z,101128.06
2022-12-31T11:06:45.886Z,101100.19
2022-12-31T11:10:00.401Z,101083.59
2022-12-31T11:12:51.504Z,101061.03
2022-12-31T11:15:20.992Z,101055.06
2022-12-31T11:17:53.571Z,101076.00
2022-12-31T11:20:46.369Z,101079.53
2022-12-31T11:23:41.471Z,101063.00
2022-12-31T11:26:29.981Z,101077.78
2022-12-31T11:29:26.273Z,101094.31
2022-12-31T11:32:02.016Z,99858.50
2022-12-31T11:34:48.884Z,99849.06
2022-12-31T11:37:41.650Z,99837.66
2022-12-31T11:40:30.436Z,99849.31
2022-12-31T11:42:59.919Z,99831.56
2022-12-31T11:46:25.431Z,99841.00
2022-12-31T11:49:11.093Z,99847.41
2022-12-31T11:52:02.865Z,99839.50
2022-12-31T11:54:48.115Z,99841.06
2022-12-31T11:57:30.188Z,99832.16
2022-12-31T12:00:03.756Z,99827.28
2022-12-31T12:02:35.393Z,99837.09
2022-12-31T12:05:10.738Z,99820.09
2022-12-31T12:07:37.931Z,99826.81
2022-12-31T12:10:36.796Z,99821.00
2022-12-31T12:13:23.698Z,99818.22
2022-12-31T12:15:52.997Z,99816.66
2022-12-31T12:18:47.933Z,99829.66
2022-12-31T12:21:16.241Z,99832.31
2022-12-31T12:24:04.454Z,99826.69
2022-12-31T12:26:43.247Z,99819.13
2022-12-31T12:29:22.003Z,99812.25
2022-12-31T12:32:06.847Z,99800.44
2022-12-31T12:34:37.329Z,99802.88
2022-12-31T12:37:04.367Z,99783.22
2022-12-31T12:39:33.828Z,99800.69
2022-12-31T12:42:18.639Z,99805.94
2022-12-31T12:44:45.394Z,99794.69
2022-12-31T12:47:15.762Z,99815.56
2022-12-31T12:49:45.501Z,99822.56
2022-12-31T12:52:40.471Z,99833.97
2022-12-31T12:55:20.918Z,99836.63
2022-12-31T12:58:19.204Z,99835.09
2022-12-31T13:01:03.377Z,99834.28
2022-12-31T13:07:02.767Z,99838.16
2022-12-31T13:09:47.906Z,99828.69
2022-12-31T13:13:04.846Z,99834.19
2022-12-31T13:15:34.579Z,99845.72
2022-12-31T13:18:28.977Z,99856.25
2022-12-31T13:21:33.360Z,99853.75
2022-12-31T13:24:12.034Z,99845.28
2022-12-31T13:27:34.672Z,99855.81
2022-12-31T13:30:04.285Z,99841.31
2022-12-31T13:33:19.810Z,99853.34
2022-12-31T13:35:56.833Z,99856.06
2022-12-31T13:38:37.660Z,99868.06
2022-12-31T13:41:25.399Z,99869.84
2022-12-31T13:44:03.048Z,99849.16
2022-12-31T13:46:41.917Z,99857.72
2022-12-31T13:49:31.637Z,99855.78
2022-12-31T13:52:14.713Z,99848.31
2022-12-31T13:54:59.632Z,99852.50
2022-12-31T13:57:55.981Z,99865.72
2022-12-31T14:00:25.392Z,99872.75
2022-12-31T14:03:19.448Z,99868.66
2022-12-31T14:05:55.441Z,99867.94
2022-12-31T14:08:22.313Z,99882.56
2022-12-31T14:11:04.441Z,99887.84
2022-12-31T14:13:37.187Z,99893.09
2022-12-31T14:16:19.262Z,99897.50
2022-12-31T14:18:58.209Z,99914.88
2022-12-31T14:21:43.390Z,99904.56
2022-12-31T14:24:16.073Z,99903.72
2022-12-31T14:26:49.673Z,99910.69
2022-12-31T14:29:31.258Z,99912.38
2022-12-31T14:32:33.987Z,99906.41
2022-12-31T14:35:14.808Z,99914.16
2022-12-31T14:38:08.965Z,99891.88
2022-12-31T14:40:41.832Z,99926.22
2022-12-31T14:43:20.842Z,99930.50
2022-12-31T14:46:10.656Z,99937.31
2022-12-31T14:48:43.677Z,99954.56
2022-12-31T14:51:11.352Z,99916.88
2022-12-31T14:53:38.242Z,99957.97
2022-12-31T14:56:07.846Z,99903.13
2022-12-31T14:58:37.136Z,99938.00
2022-12-31T15:01:08.705Z,99945.69
2022-12-31T15:03:45.420Z,99937.16
2022-12-31T15:06:24.798Z,99944.03
2022-12-31T15:09:12.944Z,99952.72
2022-12-31T15:11:39.470Z,99951.81
2022-12-31T15:14:43.221Z,99948.31
2022-12-31T15:17:12.767Z,99948.38
2022-12-31T15:19:54.840Z,99954.56
2022-12-31T15:22:24.459Z,99957.00
2022-12-31T15:24:51.156Z,99937.19
2022-12-31T15:27:29.874Z,99959.53
2022-12-31T15:29:56.560Z,99956.00
2022-12-31T15:32:28.891Z,99957.75
2022-12-31T15:35:26.094Z,99949.19
2022-12-31T15:38:11.244Z,99938.97
2022-12-31T15:40:44.388Z,99941.69
2022-12-31T15:43:36.160Z,99948.66
2022-12-31T15:46:08.349Z,99953.00
2022-12-31T15:48:46.183Z,99950.41
2022-12-31T15:51:21.964Z,99964.09
2022-12-31T15:53:53.227Z,99964.06
2022-12-31T15:56:35.852Z,99959.72
2022-12-31T15:59:05.062Z,99953.66
2022-12-31T16:01:34.457Z,99947.78
2022-12-31T16:04:08.847Z,99954.53
2022-12-31T16:06:38.957Z,99945.97
2022-12-31T16:09:17.575Z,99957.13
2022-12-31T16:11:44.706Z,99951.91
2022-12-31T16:14:24.879Z,99938.13
2022-12-31T16:17:01.202Z,99941.59
2022-12-31T16:19:43.255Z,99944.22
2022-12-31T16:22:16.737Z,99907.28
2022-12-31T16:25:19.483Z,99935.66
2022-12-31T16:27:31.471Z,99932.13
2022-12-31T16:30:04.952Z,99935.28
2022-12-31T16:32:38.478Z,99936.28
2022-12-31T16:35:25.649Z,99930.88
2022-12-31T16:38:14.641Z,99923.25
2022-12-31T16:40:43.751Z,99894.09
2022-12-31T16:43:47.524Z,99907.84
2022-12-31T16:46:20.296Z,99908.66
2022-12-31T16:48:53.929Z,99904.41
2022-12-31T16:51:23.917Z,99910.41
2022-12-31T16:53:50.925Z,99919.84
2022-12-31T16:56:33.128Z,99913.75
2022-12-31T16:59:34.950Z,99882.75
2022-12-31T17:02:04.489Z,99895.56
2022-12-31T17:04:31.228Z,99903.16
2022-12-31T17:07:29.842Z,99907.47
2022-12-31T17:10:08.614Z,99907.38
2022-12-31T17:13:17.498Z,99894.44
2022-12-31T17:15:48.931Z,99889.28
2022-12-31T17:18:20.117Z,99888.50
2022-12-31T17:20:47.085Z,99895.34
2022-12-31T17:23:23.441Z,99897.13
2022-12-31T17:25:58.248Z,99874.03
2022-12-31T17:28:26.060Z,99880.91
2022-12-31T17:30:52.859Z,99889.44
2022-12-31T17:33:22.815Z,99885.97
2022-12-31T17:35:56.076Z,99890.38
2022-12-31T17:38:25.801Z,99882.50
2022-12-31T17:40:54.127Z,99885.94
2022-12-31T17:43:22.972Z,99879.97
2022-12-31T17:45:53.185Z,99878.22
2022-12-31T17:48:20.409Z,99869.56
2022-12-31T17:50:52.341Z,99873.03
2022-12-31T17:53:19.548Z,99865.31
2022-12-31T17:55:48.480Z,99864.50
2022-12-31T17:58:29.301Z,99873.94
2022-12-31T18:00:56.626Z,99864.50
2022-12-31T18:03:23.366Z,99875.66
2022-12-31T18:05:50.102Z,99866.19
2022-12-31T18:08:16.754Z,99874.88
2022-12-31T18:10:44.546Z,99876.63
2022-12-31T18:13:18.391Z,99880.00
2022-12-31T18:15:45.213Z,99886.88
2022-12-31T18:18:24.903Z,99888.50
2022-12-31T18:20:58.316Z,99872.13
2022-12-31T18:23:30.593Z,99876.38
2022-12-31T18:25:57.415Z,99870.22
2022-12-31T18:28:24.158Z,99890.91
2022-12-31T18:30:51.227Z,99898.59
2022-12-31T18:33:25.863Z,99890.72
2022-12-31T18:36:10.023Z,99894.09
2022-12-31T18:38:37.030Z,99875.84
2022-12-31T18:41:04.107Z,99872.44
2022-12-31T18:43:30.789Z,99850.13
2022-12-31T18:45:57.621Z,99867.28
2022-12-31T18:48:24.343Z,99865.38
2022-12-31T18:50:51.281Z,99847.22
2022-12-31T18:53:29.431Z,99841.28
2022-12-31T18:56:06.961Z,99811.09
2022-12-31T18:58:33.743Z,99764.78
2022-12-31T19:01:00.735Z,99762.16
2022-12-31T19:03:28.288Z,99793.75
2022-12-31T19:05:55.077Z,99786.84
2022-12-31T19:08:22.990Z,99779.22
2022-12-31T19:10:51.486Z,99761.09
2022-12-31T19:13:19.945Z,99768.94
2022-12-31T19:15:51.884Z,99765.50
2022-12-31T19:18:19.196Z,99756.06
2022-12-31T19:20:46.256Z,99762.94
2022-12-31T19:23:19.041Z,99756.84
2022-12-31T19:25:46.675Z,99751.53
2022-12-31T19:28:26.704Z,99759.25
2022-12-31T19:30:53.672Z,99754.13
2022-12-31T19:33:20.661Z,99764.38
2022-12-31T19:35:47.415Z,99759.06
2022-12-31T19:38:24.467Z,99758.97
2022-12-31T19:40:52.236Z,99769.28
2022-12-31T19:43:20.500Z,99746.06
2022-12-31T19:45:47.596Z,99740.88
2022-12-31T19:48:20.236Z,99778.53
2022-12-31T19:50:48.844Z,99774.06
2022-12-31T19:53:26.539Z,99764.34
2022-12-31T19:55:53.524Z,99762.47
2022-12-31T19:58:22.464Z,99739.09
2022-12-31T20:00:55.615Z,99735.56
2022-12-31T20:03:25.575Z,99731.97
2022-12-31T20:06:01.529Z,99723.38
2022-12-31T20:08:30.816Z,99712.06
2022-12-31T20:10:59.025Z,99718.94
2022-12-31T20:13:28.810Z,99712.06
2022-12-31T20:15:55.486Z,99704.38
2022-12-31T20:18:23.456Z,99710.34
2022-12-31T20:20:55.570Z,99723.25
2022-12-31T20:23:22.818Z,99726.66
2022-12-31T20:26:02.156Z,99732.66
2022-12-31T20:28:29.062Z,99717.13
2022-12-31T20:30:55.895Z,99723.03
2022-12-31T20:33:22.706Z,99704.88
2022-12-31T20:35:49.349Z,99706.38
2022-12-31T20:38:15.952Z,99717.63
2022-12-31T20:40:46.663Z,99714.19
2022-12-31T20:43:13.989Z,99720.25
2022-12-31T20:45:41.529Z,99711.59
2022-12-31T20:48:08.519Z,99711.47
2022-12-31T20:50:35.280Z,99727.81
2022-12-31T20:53:02.212Z,99725.22
2022-12-31T20:55:30.822Z,99732.84
2022-12-31T20:57:57.602Z,99723.41
2022-12-31T21:00:24.220Z,99716.41
2022-12-31T21:03:00.284Z,99693.22
2022-12-31T21:05:33.540Z,99693.19
2022-12-31T21:08:00.289Z,99720.72
2022-12-31T21:10:26.876Z,99712.03
2022-12-31T21:12:53.519Z,99702.53
2022-12-31T21:15:21.696Z,99709.47
2022-12-31T21:17:48.480Z,99715.59
2022-12-31T21:20:15.108Z,99710.38
2022-12-31T21:22:41.776Z,99695.66
2022-12-31T21:25:09.621Z,99682.78
2022-12-31T21:27:36.295Z,99697.47
2022-12-31T21:30:19.811Z,99695.63
2022-12-31T21:32:46.929Z,99676.50
2022-12-31T21:38:03.981Z,99693.72
2022-12-31T21:40:31.205Z,99690.94
2022-12-31T21:42:58.121Z,99687.47
2022-12-31T21:45:24.961Z,99687.34
2022-12-31T21:48:10.313Z,99683.63
2022-12-31T21:50:37.093Z,99675.09
2022-12-31T21:53:03.721Z,99658.63
2022-12-31T21:55:56.448Z,99657.63
2022-12-31T21:58:26.324Z,99680.78
2022-12-31T22:01:13.493Z,99662.34
2022-12-31T22:03:40.482Z,99642.53
2022-12-31T22:06:13.226Z,99644.16
2022-12-31T22:08:41.539Z,99648.28
2022-12-31T22:11:08.609Z,99647.41
2022-12-31T22:13:35.873Z,99647.41
2022-12-31T22:16:05.718Z,99644.69
2022-12-31T22:18:35.756Z,99631.75
2022-12-31T22:21:13.715Z,99646.44
2022-12-31T22:23:44.556Z,99652.44
2022-12-31T22:26:13.919Z,99654.97
2022-12-31T22:28:41.923Z,99650.53
2022-12-31T22:31:17.270Z,99653.91
2022-12-31T22:33:43.952Z,99650.44
2022-12-31T22:36:12.881Z,99635.94
2022-12-31T22:38:39.822Z,99640.03
2022-12-31T22:41:10.900Z,99647.84
2022-12-31T22:43:40.174Z,99630.75
2022-12-31T22:46:17.520Z,99645.31
2022-12-31T22:48:44.386Z,99638.44
2022-12-31T22:51:12.674Z,99634.06
2022-12-31T22:53:41.306Z,99632.25
2022-12-31T22:56:08.303Z,99631.38
2022-12-31T22:58:35.313Z,99619.38
2022-12-31T23:01:06.007Z,99628.56
2022-12-31T23:03:32.931Z,99640.75
2022-12-31T23:05:59.712Z,99639.81
2022-12-31T23:08:26.369Z,99632.78
2022-12-31T23:10:59.812Z,99636.91
2022-12-31T23:13:51.221Z,99644.69
2022-12-31T23:16:37.854Z,99647.28
2022-12-31T23:19:24.057Z,99651.25
2022-12-31T23:22:09.532Z,99638.56
2022-12-31T23:24:36.451Z,99633.03
2022-12-31T23:27:03.437Z,99619.88
2022-12-31T23:29:30.141Z,99629.28
2022-12-31T23:31:57.000Z,99609.47
2022-12-31T23:34:23.672Z,99588.97
2022-12-31T23:36:50.474Z,99618.94
2022-12-31T23:39:17.187Z,99618.16
2022-12-31T23:41:43.841Z,99605.13
2022-12-31T23:44:11.985Z,99600.91
2022-12-31T23:46:39.198Z,99609.41
2022-12-31T23:49:06.532Z,99617.00
2022-12-31T23:51:33.364Z,99616.97
2022-12-31T23:54:00.016Z,99595.28
2022-12-31T23:56:26.693Z,99604.63
2022-12-31T23:58:57.233Z,99595.28
